Weather at Lennart Meri Tallinn Airport

Public forecast

Using degrees Celsius for public forecast. Weather courtesy of forecast.io.

Current aviation weather report (METAR) for Lennart Meri Tallinn Airport

2024/05/28 04:50 (retrieved 34 minutes ago)

EETN 280450Z 19006KT 150V210 CAVOK 19/13 Q1020 NOSIG

Closest aviation forecast (TAF) to Lennart Meri Tallinn Airport

Forecast is more than 6 hours old.

Closest forecast is Slia─Ź Airport, 676.9 nm (1,253.7 km) SSW.

2024/05/27 18:24 (retrieved 11 hours ago)

TAF TAF LZSL 271630Z 2718/2806 VRB03KT CAVOK TEMPO 2718/2722 9999 SCT045